Station: Bridgetown

  Atmospheric Gas Attenuation - ITU Rec 676-11   --------------- db/100km ---------------
Date Time Temp RH % AH g/m3 Dew Point Wind Direction Speed kph Gust kph Barometer mB Rainfall Since 9am 24GHz 47GHz 76GHz 122GHz 134GHz 241GHz
04 05:10 8 99 8.19 7.8 2 4 1013.1 0.6 19.0 26.9 41.1 107.8 100.3 344.3
04 05:00 8 99 8.19 7.9 6 9 1010.1 0.4 19.0 26.8 40.9 107.5 100.0 343.4
04 04:50 8 99 8.19 7.8 4 6 1013.1 0.4 19.0 26.9 41.1 107.8 100.3 344.3
04 04:40 8 99 8.19 7.8 9 11 1013.1 0.2 19.0 26.9 41.1 107.8 100.3 344.3
04 04:30 8 99 8.19 7.9 9 15 1010.1 0.2 19.0 26.8 40.9 107.5 100.0 343.4
04 04:20 8.1 99 8.24 7.9 6 7 1013.1 0.2 19.1 27.0 41.2 108.2 100.9 346.3
04 04:10 8.1 99 8.24 7.9 6 7 1013.1 0.2 19.1 27.0 41.2 108.2 100.9 346.3
04 04:00 8.1 99 8.24 8 7 11 1010.3 0.2 19.1 26.9 41.1 107.9 100.6 345.5
04 03:40 8.2 98 8.21 7.9 7 9 1013.1 0.2 19.0 26.9 41.0 107.7 100.3 344.4
04 03:30 8.3 98 8.26 8 7 13 1010.5 0.2 19.1 26.9 41.1 107.9 100.7 345.7
04 03:20 8.4 96 8.15 7.8 7 11 1013.1 0.2 18.9 26.7 40.7 106.8 99.2 340.5
04 03:10 8.5 95 8.11 7.7 9 13 1013.1 0.2 18.8 26.6 40.5 106.2 98.5 338.1
04 03:00 8.6 93 7.99 7.5 9 13 1010.6 0.2 18.5 26.3 39.8 104.4 96.5 331.2
04 02:50 8.7 91 7.87 7.4 7 9 1013.1 0.2 18.3 26.2 39.3 103.2 94.9 325.6
04 02:40 8.7 91 7.87 7.3 11 15 1013.1 0.2 18.3 26.2 39.3 103.2 94.9 325.6
04 02:30 8.7 92 7.96 7.5 11 19 1010.5 0.2 18.5 26.2 39.6 103.9 96.0 329.3
04 02:20 8.7 91 7.87 7.3 11 15 1013.1 0.2 18.3 26.2 39.3 103.2 94.9 325.6
04 02:10 8.7 91 7.87 7.3 9 15 1013.1 0.2 18.3 26.2 39.3 103.2 94.9 325.6
04 02:00 8.7 91 7.87 7.3 11 17 1010.5 0.2 18.3 26.1 39.2 102.9 94.7 324.9
04 01:50 8.7 91 7.87 7.3 7 9 1013.1 0.2 18.3 26.2 39.3 103.2 94.9 325.6
04 01:30 8.7 91 7.87 7.3 7 13 1010.4 0.2 18.3 26.1 39.2 102.9 94.7 324.9
04 01:20 8.6 91 7.82 7.3 6 6 1013.1 0.2 18.2 26.1 39.2 102.8 94.4 323.6
04 01:10 8.6 91 7.82 7.3 7 9 1013.1 0.2 18.2 26.1 39.2 102.8 94.4 323.6
04 01:00 8.6 92 7.91 7.4 7 15 1009.7 0.2 18.4 26.1 39.4 103.4 95.3 327.1
04 00:50 8.5 93 7.94 7.4 7 9 1013.1 0.2 18.4 26.4 39.7 104.3 96.1 329.9
04 00:40 8.5 94 8.03 7.6 6 6 1013.1 0.2 18.6 26.5 40.1 105.3 97.4 334.2
04 00:30 8.5 94 8.03 7.6 7 13 1009.8 0.2 18.6 26.4 40.0 104.9 97.1 333.3
04 00:20 8.3 96 8.09 7.7 4 6 1013.1 0.2 18.8 26.7 40.5 106.2 98.5 338.0
04 00:10 8 95 7.86 7.2 2 4 1013.1 0.2 18.3 26.4 39.7 104.0 95.7 328.1
04 00:00 8.2 95 7.96 7.4 6 11 1009.3 0.2 18.5 26.3 39.8 104.5 96.5 331.1
03 23:50 8.5 94 8.03 7.6 7 9 1013.1 0.2 18.6 26.5 40.1 105.3 97.4 334.2
03 23:40 8.5 95 8.11 7.7 6 7 1013.1 0.2 18.8 26.6 40.5 106.2 98.5 338.1
03 23:30 8.6 95 8.17 7.8 7 13 1009.5 0.2 18.9 26.6 40.5 106.3 98.9 339.6
03 23:20 8.6 94 8.08 7.7 7 11 1013.1 0.2 18.7 26.6 40.3 105.7 98.0 336.2
03 23:10 8.6 94 8.08 7.7 7 9 1013.1 0.2 18.7 26.6 40.3 105.7 98.0 336.2
03 23:00 8.6 95 8.17 7.8 6 13 1009.8 0.2 18.9 26.6 40.5 106.4 98.9 339.7
03 22:50 8.6 95 8.17 7.8 4 4 1013.1 0.2 18.9 26.7 40.7 106.7 99.2 340.6
03 22:40 8.6 96 8.25 8 6 7 1013.1 0.2 19.1 26.9 41.0 107.6 100.3 344.6
03 22:30 8.6 96 8.25 8 7 11 1009.8 0.2 19.1 26.7 40.9 107.3 100.1 343.6
03 22:20 8.6 96 8.25 8 9 9 1013.1 0.2 19.1 26.9 41.0 107.6 100.3 344.6
03 22:10 8.7 96 8.31 8.1 6 9 1013.1 0.2 19.2 26.9 41.2 108.2 101.0 347.1
03 22:00 8.7 96 8.31 8.1 7 11 1009.8 0.2 19.2 26.8 41.1 107.8 100.8 346.1
03 21:50 8.6 96 8.25 8 6 7 1013.1 0.2 19.1 26.9 41.0 107.6 100.3 344.6
03 21:40 8.7 96 8.31 8.1 6 6 1013.1 0.2 19.2 26.9 41.2 108.2 101.0 347.1
03 21:30 8.7 96 8.31 8.1 7 13 1010 0.2 19.2 26.8 41.1 107.8 100.8 346.2
03 21:20 8.7 97 8.39 8.2 7 7 1013.1 0.2 19.4 27.1 41.6 109.1 102.2 351.0
03 21:10 8.7 97 8.39 8.2 6 6 1013.1 0.2 19.4 27.1 41.6 109.1 102.2 351.0
03 21:00 8.8 97 8.45 8.4 6 9 1009.7 0.2 19.5 27.0 41.6 109.3 102.6 352.5
03 20:50 8.9 97 8.5 8.4 6 7 1013.1 0.2 19.6 27.2 41.9 110.1 103.4 355.5
03 20:40 8.9 97 8.5 8.4 9 11 1013.1 0.2 19.6 27.2 41.9 110.1 103.4 355.5
03 20:30 9.1 97 8.61 8.6 9 15 1010.1 0.2 19.8 27.2 42.1 110.7 104.5 359.1
03 20:20 9.1 98 8.7 8.8 13 15 1013.1 0.2 20.0 27.5 42.7 112.1 106.0 364.4
03 20:10 9.1 98 8.7 8.8 7 9 1013.1 0.2 20.0 27.5 42.7 112.1 106.0 364.4
03 20:00 9.1 97 8.61 8.6 7 9 1010 0 19.8 27.2 42.1 110.7 104.5 359.1
03 19:50 9.2 97 8.66 8.7 6 7 1013.1 0 19.9 27.4 42.4 111.5 105.3 362.0
03 19:40 9.6 92 8.43 8.3 11 15 1013.1 0 19.4 26.9 41.2 108.3 101.5 348.9
03 19:30 9.7 89 8.21 8 11 20 1009.9 0 19.0 26.3 40.1 105.3 98.1 336.9
03 19:20 9.7 88 8.11 7.8 9 11 1013.1 0 18.7 26.3 39.9 104.6 97.0 333.0
03 19:10 9.5 88 8.01 7.6 7 9 1013.1 0 18.5 26.2 39.5 103.7 95.9 329.0
03 19:00 9.3 87 7.82 7.3 6 9 1009.4 0 18.1 25.8 38.7 101.5 93.2 319.8
03 18:50 9.4 85 7.69 7.1 6 7 1013.1 0 17.8 25.7 38.3 100.3 91.6 314.1
03 18:40 9.4 84 7.6 6.8 7 7 1013.1 0 17.6 25.5 37.9 99.3 90.4 309.9
03 18:30 9.4 83 7.51 6.7 9 13 1009.3 0 17.5 25.2 37.4 97.9 88.9 304.7
03 18:20 9.4 80 7.24 6.1 9 15 1013.1 0 16.9 24.9 36.4 95.4 85.6 293.0
03 18:10 9.4 79 7.15 5.9 6 6 1013.1 0 16.7 24.8 36.1 94.4 84.4 288.8
03 18:00 9.7 76 7.01 5.7 7 11 1008.9 0 16.4 24.3 35.2 92.2 81.9 280.2
03 17:50 9.9 74 6.91 5.5 6 11 1013.1 0 16.1 24.3 34.9 91.3 80.7 275.9
03 17:40 10.2 71 6.76 5.3 6 9 1013.1 0 15.8 23.9 34.2 89.3 78.4 268.0
03 17:30 10.4 70 6.75 5.2 11 15 1008.9 0 15.8 23.7 33.9 88.6 77.8 265.9
03 17:20 10.6 69 6.74 5.1 9 11 1013.1 0 15.8 23.8 33.9 88.7 77.8 265.8
03 17:10 10.9 66 6.57 4.8 9 11 1013.1 0 15.4 23.5 33.1 86.6 75.3 257.2
03 17:00 11.3 65 6.63 5 11 19 1008.4 0 15.5 23.3 33.0 86.3 75.4 257.5
03 16:50 11.5 64 6.61 4.9 6 7 1013.1 0 15.4 23.4 33.0 86.4 75.2 257.0
03 16:40 11.6 61 6.34 4.5 7 9 1013.1 0 14.9 22.9 32.0 83.5 71.7 244.8
03 16:30 11.6 60 6.24 4.1 9 15 1008.1 0 14.6 22.6 31.4 82.0 70.2 239.4
03 16:20 12.2 58 6.26 4.2 9 11 1013.1 0 14.7 22.7 31.4 82.1 70.2 239.5
03 16:10 12.3 60 6.52 4.7 11 17 1013.1 0 15.2 23.0 32.4 84.6 73.3 250.5
03 16:00 12.3 61 6.62 5 6 9 1007.5 0 15.4 23.0 32.5 85.1 74.2 253.7
03 15:50 12 59 6.29 4.4 6 7 1013.1 0 14.7 22.8 31.6 82.6 70.8 241.4
03 15:40 11.4 61 6.26 4.3 7 9 1013.1 0 14.7 22.9 31.7 82.9 70.9 241.9
03 15:30 11.9 62 6.57 4.9 11 20 1008.1 0 15.3 23.0 32.5 85.1 74.0 252.9
03 15:20 12.4 59 6.45 4.6 17 20 1013.1 0 15.1 22.9 32.1 83.8 72.4 247.1
03 15:10 12.8 55 6.16 4 13 17 1013.1 0 14.4 22.4 30.8 80.5 68.5 233.4
03 15:00 12.5 57 6.27 4.2 11 17 1007.9 0 14.7 22.4 31.1 81.4 69.7 238.0
03 14:50 12.6 58 6.42 4.5 7 9 1013.1 0 15.0 22.8 31.9 83.3 71.8 245.2
03 14:40 12.4 60 6.56 4.8 9 11 1013.1 0 15.3 23.1 32.5 84.9 73.7 251.9
03 14:30 12.2 65 7.01 5.8 11 19 1007.8 0 16.3 23.6 34.1 89.2 79.2 271.2
03 14:20 12.8 67 7.51 6.8 6 9 1013.1 0 17.3 24.4 36.0 94.2 85.4 292.7
03 14:10 12.8 60 6.72 5.2 11 13 1013.1 0 15.6 23.2 32.9 86.1 75.4 257.6
03 14:00 12.3 60 6.52 4.8 11 19 1007.7 0 15.2 22.8 32.2 84.1 73.0 249.3
03 13:50 12.3 59 6.41 4.5 9 17 1013.1 0 15.0 22.9 32.0 83.5 72.0 245.7
03 13:40 12 59 6.29 4.2 9 17 1013.1 0 14.7 22.8 31.6 82.6 70.8 241.4
03 13:30 11.8 63 6.63 5 9 17 1008.1 0 15.5 23.1 32.8 85.8 74.9 255.8
03 13:20 11.7 61 6.38 4.4 11 17 1013.1 0 14.9 23.0 32.1 83.8 72.2 246.2
03 13:10 11.5 65 6.71 5.1 13 17 1013.1 0 15.7 23.5 33.4 87.4 76.5 261.4
03 13:00 11.5 72 7.44 6.6 7 17 1008.4 0 17.2 24.5 36.1 94.5 85.5 293.2
03 12:50 11.3 70 7.14 6 13 17 1013.1 0 16.6 24.3 35.2 92.1 82.2 281.4
03 12:40 10.8 77 7.61 6.9 7 15 1013.1 0 17.6 25.1 37.3 97.7 88.9 304.9
03 12:30 10.3 71 6.8 5.3 11 24 1008.9 0 15.9 23.8 34.1 89.3 78.5 268.5
03 12:20 10.9 74 7.36 6.4 7 11 1013.1 0 17.1 24.7 36.2 94.9 85.5 292.9

Last Refresh: 04-Aug-2020 06:56:24

Most of the information presented on this site is sourced from the Bureau of Meteorology.  Copyright in all material sourced from the Bureau of Meteorology resides with the Commonwealth of Australia.